createdAt,value
2018-03-12T00:00:04.760Z,10.80
2018-03-12T00:02:32.744Z,10.80
2018-03-12T00:05:00.762Z,10.80
2018-03-12T00:07:29.545Z,10.80
2018-03-12T00:09:57.539Z,10.70
2018-03-12T00:12:25.546Z,10.80
2018-03-12T00:14:53.556Z,10.70
2018-03-12T00:17:22.321Z,10.50
2018-03-12T00:19:51.085Z,10.60
2018-03-12T00:22:30.884Z,10.50
2018-03-12T00:24:59.662Z,10.60
2018-03-12T00:27:27.660Z,10.50
2018-03-12T00:29:56.818Z,10.40
2018-03-12T00:32:25.550Z,10.30
2018-03-12T00:34:53.557Z,10.20
2018-03-12T00:37:22.324Z,10.10
2018-03-12T00:39:50.340Z,10.00
2018-03-12T00:42:19.108Z,10.10
2018-03-12T00:44:47.094Z,10.00
2018-03-12T00:47:15.100Z,10.10
2018-03-12T00:49:43.877Z,10.20
2018-03-12T00:52:11.892Z,10.10
2018-03-12T00:54:39.908Z,10.10
2018-03-12T00:57:08.604Z,10.10
2018-03-12T00:59:36.609Z,10.10
2018-03-12T01:02:04.613Z,10.10
2018-03-12T01:04:32.621Z,10.10
2018-03-12T01:07:01.388Z,10.00
2018-03-12T01:09:29.397Z,10.00
2018-03-12T01:11:58.184Z,10.10
2018-03-12T01:14:26.173Z,10.00
2018-03-12T01:16:54.948Z,10.10
2018-03-12T01:19:22.952Z,10.10
2018-03-12T01:21:50.945Z,10.10
2018-03-12T01:24:19.717Z,10.00
2018-03-12T01:26:47.712Z,9.90
2018-03-12T01:29:15.699Z,9.90
2018-03-12T01:31:44.468Z,9.80
2018-03-12T01:34:12.476Z,9.80
2018-03-12T01:36:40.467Z,9.80
2018-03-12T01:39:20.969Z,9.90
2018-03-12T01:41:48.973Z,10.00
2018-03-12T01:44:16.969Z,9.90
2018-03-12T01:46:45.367Z,9.90
2018-03-12T01:49:13.358Z,9.80
2018-03-12T01:51:41.352Z,9.80
2018-03-12T01:54:09.353Z,9.70
2018-03-12T01:56:38.121Z,9.60
2018-03-12T01:59:06.113Z,9.50
2018-03-12T02:01:34.111Z,9.60
2018-03-12T02:04:02.112Z,9.60
2018-03-12T02:06:30.868Z,9.60
2018-03-12T02:08:58.866Z,9.50
2018-03-12T02:11:26.869Z,9.50
2018-03-12T02:13:55.632Z,9.50
2018-03-12T02:16:23.638Z,9.40
2018-03-12T02:18:51.649Z,9.60
2018-03-12T02:21:20.395Z,9.40
2018-03-12T02:23:48.391Z,9.40
2018-03-12T02:26:16.388Z,9.30
2018-03-12T02:28:44.376Z,9.40
2018-03-12T02:31:13.149Z,9.60
2018-03-12T02:33:41.180Z,9.50
2018-03-12T02:36:09.178Z,9.50
2018-03-12T02:38:37.175Z,9.50
2018-03-12T02:41:05.165Z,9.50
2018-03-12T02:43:33.153Z,9.50
2018-03-12T02:46:01.925Z,9.60
2018-03-12T02:48:29.950Z,9.50
2018-03-12T02:50:57.937Z,9.60
2018-03-12T02:53:25.932Z,9.60
2018-03-12T02:55:53.946Z,9.60
2018-03-12T02:58:22.683Z,9.60
2018-03-12T03:00:50.689Z,9.50
2018-03-12T03:03:18.683Z,9.60
2018-03-12T03:05:47.446Z,9.50
2018-03-12T03:08:15.451Z,9.50
2018-03-12T03:10:43.445Z,9.60
2018-03-12T03:13:11.424Z,9.70
2018-03-12T03:15:39.456Z,9.60
2018-03-12T03:18:07.460Z,9.60
2018-03-12T03:20:35.463Z,9.50
2018-03-12T03:23:03.456Z,9.40
2018-03-12T03:25:31.456Z,9.50
2018-03-12T03:28:00.208Z,9.50
2018-03-12T03:30:34.640Z,9.40
2018-03-12T03:33:02.640Z,9.30
2018-03-12T03:35:31.475Z,9.30
2018-03-12T03:38:00.227Z,9.40
2018-03-12T03:40:28.240Z,9.30
2018-03-12T03:42:56.236Z,9.40
2018-03-12T03:45:24.232Z,9.30
2018-03-12T03:47:52.247Z,9.30
2018-03-12T03:50:20.257Z,9.40
2018-03-12T03:52:48.253Z,9.50
2018-03-12T03:55:16.251Z,9.60
2018-03-12T03:57:44.999Z,9.50
2018-03-12T04:00:13.013Z,9.40
2018-03-12T04:02:41.036Z,9.40
2018-03-12T04:05:09.026Z,9.40
2018-03-12T04:07:37.041Z,9.40
2018-03-12T04:10:05.037Z,9.30
2018-03-12T04:12:33.022Z,9.40
2018-03-12T04:15:01.024Z,9.40
2018-03-12T04:17:29.784Z,9.40
2018-03-12T04:19:58.071Z,9.40
2018-03-12T04:22:26.056Z,9.30
2018-03-12T04:24:54.068Z,9.30
2018-03-12T04:27:22.047Z,9.30
2018-03-12T04:29:50.055Z,9.50
2018-03-12T04:32:18.856Z,9.30
2018-03-12T04:34:47.607Z,9.30
2018-03-12T04:37:15.612Z,9.30
2018-03-12T04:39:43.624Z,9.30
2018-03-12T04:42:11.605Z,9.20
2018-03-12T04:44:40.376Z,9.10
2018-03-12T04:47:08.376Z,9.10
2018-03-12T04:49:37.129Z,9.20
2018-03-12T04:52:05.128Z,9.10
2018-03-12T04:54:33.136Z,9.20
2018-03-12T04:57:01.125Z,9.20
2018-03-12T04:59:29.892Z,9.20
2018-03-12T05:01:57.899Z,9.10
2018-03-12T05:04:25.896Z,9.20
2018-03-12T05:06:54.710Z,9.30
2018-03-12T05:09:22.661Z,9.20
2018-03-12T05:11:50.656Z,9.30
2018-03-12T05:14:19.431Z,9.30
2018-03-12T05:16:48.188Z,9.30
2018-03-12T05:19:16.169Z,9.20
2018-03-12T05:21:44.165Z,9.30
2018-03-12T05:24:12.192Z,9.30
2018-03-12T05:26:40.176Z,9.30
2018-03-12T05:29:22.196Z,9.30
2018-03-12T05:31:50.956Z,9.40
2018-03-12T05:34:18.952Z,9.30
2018-03-12T05:36:46.965Z,9.40
2018-03-12T05:39:15.741Z,9.50
2018-03-12T05:41:43.737Z,9.40
2018-03-12T05:44:11.748Z,9.50
2018-03-12T05:46:39.776Z,9.60
2018-03-12T05:49:08.536Z,9.60
2018-03-12T05:51:36.552Z,9.60
2018-03-12T05:54:04.552Z,9.60
2018-03-12T05:56:32.572Z,9.70
2018-03-12T05:59:01.348Z,9.60
2018-03-12T06:01:29.350Z,9.50
2018-03-12T06:03:58.114Z,9.60
2018-03-12T06:06:26.114Z,9.60
2018-03-12T06:08:54.116Z,9.60
2018-03-12T06:11:22.864Z,9.60
2018-03-12T06:13:50.904Z,9.50
2018-03-12T06:16:19.676Z,9.60
2018-03-12T06:18:51.564Z,9.50
2018-03-12T06:21:20.352Z,9.70
2018-03-12T06:23:50.364Z,9.60
2018-03-12T06:26:18.412Z,9.70
2018-03-12T06:28:46.410Z,9.70
2018-03-12T06:31:14.405Z,9.80
2018-03-12T06:33:42.456Z,9.80
2018-03-12T06:36:12.404Z,9.80
2018-03-12T06:38:40.838Z,9.80
2018-03-12T06:41:08.840Z,9.80
2018-03-12T06:43:37.601Z,9.80
2018-03-12T06:46:05.600Z,9.70
2018-03-12T06:48:33.609Z,9.80
2018-03-12T06:51:02.376Z,9.80
2018-03-12T06:53:30.375Z,9.80
2018-03-12T06:55:58.372Z,9.80
2018-03-12T06:58:27.150Z,9.90
2018-03-12T07:00:55.161Z,9.80
2018-03-12T07:03:23.950Z,10.00
2018-03-12T07:05:52.725Z,10.00
2018-03-12T07:08:20.748Z,9.90
2018-03-12T07:10:49.673Z,10.00
2018-03-12T07:13:17.681Z,10.00
2018-03-12T07:15:45.693Z,10.00
2018-03-12T07:18:13.714Z,10.00
2018-03-12T07:20:41.714Z,10.00
2018-03-12T07:23:09.716Z,10.00
2018-03-12T07:25:37.777Z,10.00
2018-03-12T07:28:05.756Z,10.00
2018-03-12T07:30:33.775Z,10.00
2018-03-12T07:33:01.792Z,10.00
2018-03-12T07:35:30.574Z,10.00
2018-03-12T07:37:58.596Z,10.00
2018-03-12T07:40:26.597Z,10.00
2018-03-12T07:42:54.588Z,10.00
2018-03-12T07:45:22.608Z,10.10
2018-03-12T07:47:50.647Z,10.10
2018-03-12T07:50:18.625Z,10.10
2018-03-12T07:52:46.712Z,10.10
2018-03-12T07:55:15.648Z,10.10
2018-03-12T07:57:43.645Z,10.10
2018-03-12T08:00:12.472Z,10.10
2018-03-12T08:02:40.484Z,10.10
2018-03-12T08:05:08.476Z,10.20
2018-03-12T08:07:36.530Z,10.20
2018-03-12T08:10:05.305Z,10.30
2018-03-12T08:12:33.289Z,10.20
2018-03-12T08:15:02.077Z,10.30
2018-03-12T08:17:30.076Z,10.30
2018-03-12T08:19:58.827Z,10.50
2018-03-12T08:22:26.823Z,10.40
2018-03-12T08:24:54.863Z,10.50
2018-03-12T08:27:23.208Z,10.60
2018-03-12T08:29:51.256Z,10.70
2018-03-12T08:32:19.260Z,10.70
2018-03-12T08:34:47.281Z,10.80
2018-03-12T08:37:16.056Z,10.90
2018-03-12T08:39:44.060Z,10.80
2018-03-12T08:42:12.821Z,10.90
2018-03-12T08:44:40.830Z,10.80
2018-03-12T08:47:08.836Z,10.90
2018-03-12T08:49:37.592Z,10.90
2018-03-12T08:52:06.368Z,10.90
2018-03-12T08:54:34.377Z,10.80
2018-03-12T08:57:02.373Z,10.90
2018-03-12T08:59:30.392Z,10.80
2018-03-12T09:01:59.187Z,10.90
2018-03-12T09:04:27.979Z,10.90
2018-03-12T09:06:57.717Z,11.00
2018-03-12T09:09:26.512Z,11.10
2018-03-12T09:11:54.507Z,11.00
2018-03-12T09:14:23.276Z,11.10
2018-03-12T09:16:51.280Z,11.10
2018-03-12T09:19:20.878Z,11.30
2018-03-12T09:21:48.880Z,11.20
2018-03-12T09:24:17.644Z,11.50
2018-03-12T09:26:46.400Z,11.70
2018-03-12T09:29:14.404Z,11.70
2018-03-12T09:31:42.408Z,11.80
2018-03-12T09:34:10.398Z,12.00
2018-03-12T09:36:38.415Z,12.00
2018-03-12T09:39:15.373Z,12.00
2018-03-12T09:41:43.399Z,12.00
2018-03-12T09:44:12.182Z,11.90
2018-03-12T09:46:40.169Z,11.80
2018-03-12T09:49:08.949Z,11.60
2018-03-12T09:51:36.982Z,11.50
2018-03-12T09:54:05.812Z,11.30
2018-03-12T09:56:33.811Z,11.30
2018-03-12T09:59:01.965Z,11.30
2018-03-12T10:01:29.956Z,11.30
2018-03-12T10:03:57.972Z,11.40
2018-03-12T10:06:25.969Z,11.50
2018-03-12T10:08:54.724Z,11.60
2018-03-12T10:11:22.737Z,11.60
2018-03-12T10:13:50.741Z,11.70
2018-03-12T10:16:19.501Z,11.60
2018-03-12T10:18:47.509Z,11.60
2018-03-12T10:21:15.593Z,11.60
2018-03-12T10:23:44.384Z,11.60
2018-03-12T10:26:12.388Z,11.50
2018-03-12T10:28:41.160Z,11.50
2018-03-12T10:31:09.192Z,11.40
2018-03-12T10:33:37.208Z,11.40
2018-03-12T10:36:05.274Z,11.30
2018-03-12T10:38:33.248Z,11.30
2018-03-12T10:41:01.278Z,11.30
2018-03-12T10:43:29.283Z,11.40
2018-03-12T10:45:57.285Z,11.40
2018-03-12T10:48:26.048Z,11.30
2018-03-12T10:50:54.073Z,11.20
2018-03-12T10:53:22.155Z,11.20
2018-03-12T10:55:50.220Z,11.20
2018-03-12T10:58:18.988Z,11.40
2018-03-12T11:00:52.781Z,11.40
2018-03-12T11:03:23.744Z,11.50
2018-03-12T11:05:57.488Z,11.50
2018-03-12T11:08:25.494Z,11.50
2018-03-12T11:10:54.293Z,11.60
2018-03-12T11:13:23.069Z,11.60
2018-03-12T11:15:51.074Z,11.50
2018-03-12T11:18:19.080Z,11.60
2018-03-12T11:20:47.080Z,11.50
2018-03-12T11:23:15.096Z,11.50
2018-03-12T11:25:43.368Z,11.40
2018-03-12T11:28:11.332Z,11.40
2018-03-12T11:30:39.344Z,11.10
2018-03-12T11:33:08.012Z,11.00
2018-03-12T11:35:36.021Z,10.90
2018-03-12T11:38:04.028Z,11.00
2018-03-12T11:40:32.025Z,10.90
2018-03-12T11:43:00.812Z,11.00
2018-03-12T11:45:28.812Z,10.90
2018-03-12T11:47:57.888Z,11.00
2018-03-12T11:50:25.904Z,10.90
2018-03-12T11:52:54.677Z,10.70
2018-03-12T11:55:22.672Z,10.70
2018-03-12T11:57:50.685Z,10.70
2018-03-12T12:00:18.693Z,10.60
2018-03-12T12:02:46.703Z,10.60
2018-03-12T12:05:14.704Z,10.70
2018-03-12T12:07:42.759Z,10.70
2018-03-12T12:10:10.713Z,10.70
2018-03-12T12:12:38.730Z,10.70
2018-03-12T12:15:06.741Z,10.80
2018-03-12T12:17:34.750Z,10.90
2018-03-12T12:20:02.753Z,10.90
2018-03-12T12:22:30.761Z,11.00
2018-03-12T12:24:58.761Z,11.00
2018-03-12T12:27:26.808Z,11.00
2018-03-12T12:29:54.824Z,11.00
2018-03-12T12:32:22.865Z,11.00
2018-03-12T12:34:50.989Z,11.10
2018-03-12T12:37:19.008Z,11.20
2018-03-12T12:39:47.781Z,11.60
2018-03-12T12:42:15.788Z,11.50
2018-03-12T12:44:44.564Z,11.90
2018-03-12T12:47:12.543Z,11.90
2018-03-12T12:49:40.565Z,12.10
2018-03-12T12:52:08.565Z,12.20
2018-03-12T12:54:36.597Z,12.00
2018-03-12T12:57:04.580Z,12.00
2018-03-12T12:59:32.576Z,11.90
2018-03-12T13:02:01.873Z,11.80
2018-03-12T13:04:29.879Z,11.80
2018-03-12T13:06:58.661Z,11.80
2018-03-12T13:09:26.663Z,11.70
2018-03-12T13:11:55.449Z,12.10
2018-03-12T13:14:23.447Z,12.10
2018-03-12T13:16:52.222Z,12.80
2018-03-12T13:19:20.241Z,12.80
2018-03-12T13:21:48.253Z,13.40
2018-03-12T13:24:16.255Z,13.60
2018-03-12T13:26:44.261Z,13.70
2018-03-12T13:29:12.281Z,13.60
2018-03-12T13:31:40.280Z,13.80
2018-03-12T13:34:08.342Z,13.80
2018-03-12T13:36:36.329Z,13.60
2018-03-12T13:39:04.352Z,13.40
2018-03-12T13:41:32.356Z,13.20
2018-03-12T13:44:00.368Z,13.80
2018-03-12T13:46:28.376Z,14.00
2018-03-12T13:48:56.666Z,13.90
2018-03-12T13:51:24.679Z,13.60
2018-03-12T13:53:52.705Z,13.40
2018-03-12T13:56:20.694Z,13.20
2018-03-12T13:58:48.700Z,13.00
2018-03-12T14:01:16.700Z,12.90
2018-03-12T14:03:44.712Z,12.90
2018-03-12T14:06:12.712Z,12.80
2018-03-12T14:08:41.565Z,12.80
2018-03-12T14:11:09.589Z,12.70
2018-03-12T14:13:38.360Z,12.60
2018-03-12T14:16:06.370Z,12.60
2018-03-12T14:18:34.381Z,12.60
2018-03-12T14:21:02.395Z,12.70
2018-03-12T14:23:30.380Z,12.70
2018-03-12T14:25:59.167Z,12.90
2018-03-12T14:28:27.178Z,12.90
2018-03-12T14:30:55.195Z,13.20
2018-03-12T14:33:23.964Z,13.50
2018-03-12T14:35:51.968Z,13.40
2018-03-12T14:38:20.757Z,13.20
2018-03-12T14:40:48.765Z,13.10
2018-03-12T14:43:17.549Z,13.00
2018-03-12T14:45:46.325Z,13.00
2018-03-12T14:48:14.354Z,12.90
2018-03-12T14:50:43.137Z,12.90
2018-03-12T14:53:11.893Z,12.80
2018-03-12T14:55:39.901Z,12.70
2018-03-12T14:58:07.921Z,12.70
2018-03-12T15:00:35.921Z,12.70
2018-03-12T15:03:03.944Z,12.60
2018-03-12T15:05:31.949Z,12.60
2018-03-12T15:07:59.940Z,12.50
2018-03-12T15:10:28.721Z,12.50
2018-03-12T15:12:56.720Z,12.50
2018-03-12T15:15:44.370Z,12.60
2018-03-12T15:18:13.137Z,13.20
2018-03-12T15:20:41.144Z,13.20
2018-03-12T15:23:09.939Z,14.40
2018-03-12T15:25:37.949Z,14.40
2018-03-12T15:28:05.941Z,14.60
2018-03-12T15:30:34.473Z,14.30
2018-03-12T15:33:02.481Z,14.00
2018-03-12T15:35:30.465Z,13.60
2018-03-12T15:37:59.600Z,13.40
2018-03-12T15:40:28.384Z,13.00
2018-03-12T15:42:56.381Z,13.00
2018-03-12T15:45:24.391Z,12.90
2018-03-12T15:47:52.434Z,12.90
2018-03-12T15:50:21.218Z,13.00
2018-03-12T15:52:49.224Z,12.90
2018-03-12T15:55:17.991Z,13.10
2018-03-12T15:57:46.005Z,13.10
2018-03-12T16:00:14.015Z,13.10
2018-03-12T16:02:42.029Z,13.00
2018-03-12T16:05:10.026Z,12.90
2018-03-12T16:07:38.038Z,12.80
2018-03-12T16:10:06.800Z,12.70
2018-03-12T16:12:34.793Z,12.60
2018-03-12T16:15:02.811Z,12.70
2018-03-12T16:17:31.591Z,12.60
2018-03-12T16:19:59.584Z,12.50
2018-03-12T16:22:28.356Z,12.50
2018-03-12T16:24:56.365Z,12.40
2018-03-12T16:27:25.130Z,12.60
2018-03-12T16:29:53.144Z,12.50
2018-03-12T16:32:21.930Z,12.60
2018-03-12T16:34:49.928Z,12.50
2018-03-12T16:37:17.970Z,12.60
2018-03-12T16:39:45.983Z,12.60
2018-03-12T16:42:13.984Z,12.60
2018-03-12T16:44:42.766Z,12.60
2018-03-12T16:47:10.760Z,12.50
2018-03-12T16:49:39.529Z,12.40
2018-03-12T16:52:07.543Z,12.40
2018-03-12T16:54:41.417Z,12.40
2018-03-12T16:57:03.554Z,12.40
2018-03-12T16:59:31.588Z,12.30
2018-03-12T17:01:59.636Z,12.30
2018-03-12T17:04:27.625Z,12.30
2018-03-12T17:06:55.637Z,12.20
2018-03-12T17:09:23.655Z,12.20
2018-03-12T17:11:51.670Z,12.20
2018-03-12T17:14:19.690Z,12.10
2018-03-12T17:16:48.472Z,12.10
2018-03-12T17:19:16.489Z,12.00
2018-03-12T17:21:44.505Z,12.10
2018-03-12T17:24:12.522Z,12.00
2018-03-12T17:26:40.504Z,12.00
2018-03-12T17:29:08.543Z,11.90
2018-03-12T17:31:36.540Z,11.90
2018-03-12T17:34:05.377Z,11.80
2018-03-12T17:36:33.376Z,11.70
2018-03-12T17:39:02.195Z,11.60
2018-03-12T17:41:30.214Z,11.50
2018-03-12T17:43:59.040Z,11.50
2018-03-12T17:46:27.067Z,11.60
2018-03-12T17:48:55.479Z,11.50
2018-03-12T17:51:23.473Z,11.50
2018-03-12T17:53:51.513Z,11.40
2018-03-12T17:56:20.281Z,11.30
2018-03-12T17:58:48.289Z,11.30
2018-03-12T18:01:17.068Z,11.20
2018-03-12T18:03:45.075Z,11.10
2018-03-12T18:06:13.837Z,11.10
2018-03-12T18:08:41.854Z,11.00
2018-03-12T18:11:10.612Z,11.00
2018-03-12T18:13:50.448Z,10.90
2018-03-12T18:16:18.454Z,10.80
2018-03-12T18:18:47.451Z,10.80
2018-03-12T18:21:16.045Z,10.90
2018-03-12T18:23:44.061Z,10.90
2018-03-12T18:26:12.052Z,10.90
2018-03-12T18:28:40.060Z,10.90
2018-03-12T18:31:08.828Z,10.80
2018-03-12T18:33:36.845Z,10.80
2018-03-12T18:36:04.860Z,10.80
2018-03-12T18:38:32.869Z,10.80
2018-03-12T18:41:00.860Z,10.80
2018-03-12T18:43:28.882Z,10.90
2018-03-12T18:45:57.702Z,10.90
2018-03-12T18:48:25.672Z,10.80
2018-03-12T18:50:53.710Z,10.90
2018-03-12T18:53:22.526Z,10.90
2018-03-12T18:55:50.544Z,10.80
2018-03-12T18:58:18.565Z,10.90
2018-03-12T19:00:47.501Z,10.90
2018-03-12T19:03:16.269Z,10.80
2018-03-12T19:05:44.284Z,10.80
2018-03-12T19:08:13.061Z,10.90
2018-03-12T19:10:41.341Z,10.80
2018-03-12T19:13:09.345Z,10.90
2018-03-12T19:15:37.351Z,10.80
2018-03-12T19:18:06.106Z,10.90
2018-03-12T19:20:34.109Z,10.80
2018-03-12T19:23:03.240Z,10.90
2018-03-12T19:25:31.994Z,10.80
2018-03-12T19:28:00.014Z,10.80
2018-03-12T19:30:28.031Z,10.80
2018-03-12T19:32:56.040Z,10.80
2018-03-12T19:35:24.037Z,10.80
2018-03-12T19:37:52.046Z,10.80
2018-03-12T19:40:20.037Z,10.80
2018-03-12T19:42:48.816Z,10.80
2018-03-12T19:45:16.832Z,10.70
2018-03-12T19:47:44.835Z,10.70
2018-03-12T19:50:13.765Z,10.60
2018-03-12T19:52:41.768Z,10.60
2018-03-12T19:55:09.763Z,10.50
2018-03-12T19:57:37.760Z,10.40
2018-03-12T20:00:06.536Z,10.30
2018-03-12T20:02:34.529Z,10.30
2018-03-12T20:05:02.539Z,10.30
2018-03-12T20:07:30.589Z,10.30
2018-03-12T20:10:01.388Z,10.30
2018-03-12T20:12:29.412Z,10.30
2018-03-12T20:14:58.276Z,10.30
2018-03-12T20:17:26.268Z,10.30
2018-03-12T20:19:54.302Z,10.30
2018-03-12T20:22:25.004Z,10.20
2018-03-12T20:24:54.207Z,10.30
2018-03-12T20:27:22.280Z,10.20
2018-03-12T20:29:50.297Z,10.20
2018-03-12T20:32:18.297Z,10.20
2018-03-12T20:34:46.300Z,10.20
2018-03-12T20:37:15.060Z,10.10
2018-03-12T20:39:44.002Z,10.10
2018-03-12T20:42:12.036Z,10.00
2018-03-12T20:44:40.010Z,10.10
2018-03-12T20:47:08.037Z,10.10
2018-03-12T20:49:36.053Z,10.10
2018-03-12T20:52:04.099Z,10.10
2018-03-12T20:54:32.101Z,10.00
2018-03-12T20:57:00.894Z,10.00
2018-03-12T20:59:28.885Z,10.00
2018-03-12T21:01:57.685Z,10.10
2018-03-12T21:04:26.472Z,10.00
2018-03-12T21:06:54.476Z,9.90
2018-03-12T21:09:22.492Z,10.00
2018-03-12T21:11:50.553Z,10.00
2018-03-12T21:14:18.540Z,9.90
2018-03-12T21:16:46.603Z,9.90
2018-03-12T21:19:14.563Z,9.90
2018-03-12T21:21:42.558Z,10.00
2018-03-12T21:24:10.631Z,10.00
2018-03-12T21:26:38.637Z,10.00
2018-03-12T21:29:07.397Z,10.00
2018-03-12T21:31:35.400Z,10.00
2018-03-12T21:34:03.402Z,10.00
2018-03-12T21:36:32.472Z,9.90
2018-03-12T21:39:00.472Z,9.80
2018-03-12T21:41:28.529Z,9.90
2018-03-12T21:43:56.519Z,9.80
2018-03-12T21:46:24.520Z,9.80
2018-03-12T21:48:53.029Z,9.80
2018-03-12T21:51:21.013Z,9.80
2018-03-12T21:53:52.032Z,9.70
2018-03-12T21:56:20.039Z,9.60
2018-03-12T21:58:48.028Z,9.60
2018-03-12T22:01:16.029Z,9.60
2018-03-12T22:03:44.796Z,9.50
2018-03-12T22:06:12.795Z,9.40
2018-03-12T22:08:40.788Z,9.40
2018-03-12T22:11:09.565Z,9.20
2018-03-12T22:13:37.565Z,9.10
2018-03-12T22:16:05.557Z,9.10
2018-03-12T22:18:34.340Z,9.00
2018-03-12T22:21:02.324Z,8.90
2018-03-12T22:23:30.324Z,8.90
2018-03-12T22:25:59.100Z,8.90
2018-03-12T22:28:27.088Z,8.90
2018-03-12T22:30:55.101Z,8.90
2018-03-12T22:33:23.123Z,8.80
2018-03-12T22:35:51.119Z,8.70
2018-03-12T22:38:19.129Z,8.70
2018-03-12T22:40:47.899Z,8.70
2018-03-12T22:43:15.898Z,8.60
2018-03-12T22:45:43.904Z,8.50
2018-03-12T22:48:12.677Z,8.50
2018-03-12T22:50:40.666Z,8.40
2018-03-12T22:53:08.687Z,8.40
2018-03-12T22:55:36.695Z,8.40
2018-03-12T22:58:04.694Z,8.40
2018-03-12T23:00:32.697Z,8.40
2018-03-12T23:03:00.706Z,8.30
2018-03-12T23:05:29.464Z,8.30
2018-03-12T23:07:57.479Z,8.20
2018-03-12T23:10:26.259Z,8.20
2018-03-12T23:12:54.257Z,8.10
2018-03-12T23:15:23.035Z,8.10
2018-03-12T23:17:51.042Z,8.10
2018-03-12T23:20:19.809Z,8.30
2018-03-12T23:22:48.566Z,8.40
2018-03-12T23:25:20.267Z,8.30
2018-03-12T23:27:48.269Z,8.40
2018-03-12T23:30:16.273Z,8.40
2018-03-12T23:32:44.268Z,8.40
2018-03-12T23:35:13.045Z,8.40
2018-03-12T23:37:41.044Z,8.40
2018-03-12T23:40:09.797Z,8.40
2018-03-12T23:42:37.800Z,8.30
2018-03-12T23:45:05.807Z,8.40
2018-03-12T23:47:34.573Z,8.30
2018-03-12T23:50:02.575Z,8.30
2018-03-12T23:52:30.593Z,8.30
2018-03-12T23:54:58.584Z,8.40
2018-03-12T23:57:26.592Z,8.30
2018-03-12T23:59:54.593Z,8.40
